createdAt,value
2022-08-14T00:00:02.687Z,54.93
2022-08-14T00:05:44.301Z,55.39
2022-08-14T00:11:14.124Z,55.50
2022-08-14T00:16:45.550Z,55.37
2022-08-14T00:22:44.558Z,55.57
2022-08-14T00:28:10.032Z,56.02
2022-08-14T00:33:52.560Z,56.20
2022-08-14T00:39:24.034Z,56.26
2022-08-14T00:44:55.523Z,56.58
2022-08-14T00:50:25.947Z,56.98
2022-08-14T00:55:56.558Z,56.77
2022-08-14T01:01:25.849Z,56.47
2022-08-14T01:06:55.299Z,57.20
2022-08-14T01:12:29.846Z,57.31
2022-08-14T01:18:17.527Z,57.53
2022-08-14T01:23:50.616Z,57.70
2022-08-14T01:29:48.639Z,58.03
2022-08-14T01:35:20.561Z,57.88
2022-08-14T01:41:02.292Z,58.51
2022-08-14T01:46:44.508Z,58.15
2022-08-14T01:52:34.422Z,58.29
2022-08-14T01:58:19.644Z,58.71
2022-08-14T02:03:49.989Z,59.17
2022-08-14T02:09:28.024Z,59.16
2022-08-14T02:15:02.053Z,59.67
2022-08-14T02:20:34.075Z,59.74
2022-08-14T02:26:24.087Z,59.88
2022-08-14T02:32:00.331Z,60.11
2022-08-14T02:37:47.810Z,60.25
2022-08-14T02:43:17.597Z,60.73
2022-08-14T02:49:01.271Z,60.88
2022-08-14T02:54:35.376Z,60.87
2022-08-14T03:00:06.711Z,61.00
2022-08-14T03:05:41.120Z,60.84
2022-08-14T03:11:12.619Z,60.64
2022-08-14T03:16:42.605Z,61.02
2022-08-14T03:22:17.681Z,60.73
2022-08-14T03:27:48.010Z,60.86
2022-08-14T03:33:38.058Z,60.64
2022-08-14T03:39:22.218Z,60.44
2022-08-14T03:45:20.191Z,60.22
2022-08-14T03:50:42.883Z,60.02
2022-08-14T03:56:21.355Z,60.37
2022-08-14T04:02:01.723Z,60.20
2022-08-14T04:07:35.940Z,60.40
2022-08-14T04:13:07.051Z,60.48
2022-08-14T04:18:42.429Z,59.78
2022-08-14T04:24:13.875Z,58.56
2022-08-14T04:29:45.336Z,59.78
2022-08-14T04:35:14.453Z,58.96
2022-08-14T04:41:06.518Z,58.43
2022-08-14T04:46:55.558Z,57.06
2022-08-14T04:52:26.423Z,55.64
2022-08-14T04:57:55.328Z,54.95
2022-08-14T05:03:27.483Z,54.24
2022-08-14T05:09:00.352Z,53.66
2022-08-14T05:14:45.964Z,52.58
2022-08-14T05:21:05.113Z,51.55
2022-08-14T05:26:13.206Z,50.18
2022-08-14T05:31:42.357Z,49.02
2022-08-14T05:37:15.189Z,48.86
2022-08-14T05:42:46.531Z,47.96
2022-08-14T05:48:32.921Z,47.83
2022-08-14T05:54:22.392Z,47.69
2022-08-14T05:59:56.408Z,46.95
2022-08-14T06:05:28.749Z,46.62
2022-08-14T06:11:03.611Z,45.78
2022-08-14T06:16:33.066Z,45.72
2022-08-14T06:22:02.841Z,43.58
2022-08-14T06:27:39.271Z,42.58
2022-08-14T06:33:09.305Z,40.39
2022-08-14T06:38:38.462Z,38.10
2022-08-14T06:44:09.694Z,36.40
2022-08-14T06:49:43.471Z,34.96
2022-08-14T06:55:16.381Z,33.93
2022-08-14T07:01:01.587Z,33.95
2022-08-14T07:06:45.753Z,33.63
2022-08-14T07:12:52.192Z,33.55
2022-08-14T07:18:08.904Z,33.36
2022-08-14T07:23:40.283Z,33.06
2022-08-14T07:29:13.535Z,32.75
2022-08-14T07:34:43.613Z,32.04
2022-08-14T07:40:13.734Z,31.56
2022-08-14T07:45:54.055Z,31.02
2022-08-14T07:51:24.651Z,31.37
2022-08-14T07:56:56.770Z,31.95
2022-08-14T08:02:32.458Z,31.74
2022-08-14T08:08:04.309Z,31.71
2022-08-14T08:13:42.113Z,31.89
2022-08-14T08:19:19.335Z,31.20
2022-08-14T08:24:50.329Z,30.85
2022-08-14T08:30:22.437Z,29.77
2022-08-14T08:35:52.104Z,30.05
2022-08-14T08:41:24.521Z,30.65
2022-08-14T08:46:58.754Z,30.01
2022-08-14T08:52:31.313Z,30.87
2022-08-14T08:58:05.586Z,30.28
2022-08-14T09:03:45.449Z,30.58
2022-08-14T09:09:22.864Z,30.34
2022-08-14T09:14:54.027Z,30.02
2022-08-14T09:20:26.333Z,29.80
2022-08-14T09:26:01.810Z,30.36
2022-08-14T09:31:42.870Z,31.23
2022-08-14T09:37:31.943Z,31.08
2022-08-14T09:43:19.965Z,30.51
2022-08-14T09:49:01.428Z,29.74
2022-08-14T09:54:39.321Z,29.23
2022-08-14T10:00:29.561Z,29.81
2022-08-14T10:06:12.586Z,30.16
2022-08-14T10:11:58.971Z,30.12
2022-08-14T10:17:33.110Z,30.88
2022-08-14T10:23:18.442Z,30.32
2022-08-14T10:29:17.879Z,30.16
2022-08-14T10:34:40.989Z,28.76
2022-08-14T10:40:37.407Z,29.13
2022-08-14T10:47:36.377Z,29.13
2022-08-14T10:52:07.278Z,29.31
2022-08-14T10:57:48.851Z,28.73
2022-08-14T11:03:26.717Z,28.11
2022-08-14T11:09:17.089Z,28.98
2022-08-14T11:14:59.843Z,30.09
2022-08-14T11:20:32.934Z,30.49
2022-08-14T11:26:03.618Z,30.92
2022-08-14T11:31:39.363Z,29.58
2022-08-14T11:37:22.863Z,30.32
2022-08-14T11:43:01.420Z,30.33
2022-08-14T11:48:58.990Z,30.68
2022-08-14T11:54:34.430Z,30.46
2022-08-14T12:00:08.525Z,29.61
2022-08-14T12:05:42.443Z,29.13
2022-08-14T12:11:13.805Z,28.89
2022-08-14T12:16:43.556Z,28.83
2022-08-14T12:22:17.656Z,29.00
2022-08-14T12:28:05.563Z,29.43
2022-08-14T12:33:34.505Z,29.27
2022-08-14T12:39:18.909Z,29.62
2022-08-14T12:44:49.662Z,30.76
2022-08-14T12:50:20.274Z,30.40
2022-08-14T12:56:21.671Z,30.49
2022-08-14T13:02:01.715Z,30.84
2022-08-14T13:07:37.719Z,30.64
2022-08-14T13:13:15.728Z,31.12
2022-08-14T13:18:47.125Z,31.29
2022-08-14T13:24:27.624Z,31.96
2022-08-14T13:30:04.057Z,31.92
2022-08-14T13:35:39.369Z,32.45
2022-08-14T13:41:09.066Z,32.47
2022-08-14T13:46:39.734Z,32.04
2022-08-14T13:52:48.226Z,31.94
2022-08-14T13:58:05.040Z,31.09
2022-08-14T14:03:38.069Z,30.98
2022-08-14T14:09:11.276Z,31.11
2022-08-14T14:14:51.146Z,31.03
2022-08-14T14:20:35.108Z,31.30
2022-08-14T14:26:06.151Z,32.10
2022-08-14T14:31:43.935Z,32.53
2022-08-14T14:37:15.591Z,32.46
2022-08-14T14:42:53.202Z,32.77
2022-08-14T14:48:28.306Z,32.35
2022-08-14T14:53:59.234Z,32.84
2022-08-14T14:59:28.887Z,32.63
2022-08-14T15:04:58.134Z,33.14
2022-08-14T15:10:31.085Z,33.41
2022-08-14T15:16:05.661Z,33.72
2022-08-14T15:21:34.956Z,33.67
2022-08-14T15:27:08.439Z,34.30
2022-08-14T15:32:37.525Z,34.60
2022-08-14T15:38:10.202Z,35.25
2022-08-14T15:43:40.903Z,34.91
2022-08-14T15:49:12.623Z,35.30
2022-08-14T15:54:41.380Z,35.32
2022-08-14T16:00:43.821Z,35.02
2022-08-14T16:06:17.782Z,34.66
2022-08-14T16:11:53.343Z,34.20
2022-08-14T16:17:26.004Z,34.68
2022-08-14T16:23:00.552Z,34.42
2022-08-14T16:28:33.583Z,33.96
2022-08-14T16:34:44.535Z,34.40
2022-08-14T16:39:54.413Z,34.81
2022-08-14T16:45:27.341Z,34.53
2022-08-14T16:50:57.832Z,34.81
2022-08-14T16:56:36.275Z,34.12
2022-08-14T17:02:06.762Z,34.23
2022-08-14T17:07:45.780Z,34.46
2022-08-14T17:13:17.982Z,35.25
2022-08-14T17:18:55.271Z,35.94
2022-08-14T17:24:56.742Z,36.18
2022-08-14T17:30:32.856Z,37.06
2022-08-14T17:36:10.901Z,37.26
2022-08-14T17:42:01.953Z,37.06
2022-08-14T17:47:33.965Z,38.29
2022-08-14T17:53:03.849Z,38.11
2022-08-14T17:58:42.243Z,37.82
2022-08-14T18:04:27.906Z,37.67
2022-08-14T18:10:51.812Z,38.26
2022-08-14T18:15:51.982Z,38.30
2022-08-14T18:21:40.673Z,38.32
2022-08-14T18:27:14.838Z,38.81
2022-08-14T18:32:55.366Z,39.29
2022-08-14T18:38:46.023Z,39.17
2022-08-14T18:44:15.094Z,39.56
2022-08-14T18:50:27.192Z,39.11
2022-08-14T18:55:59.939Z,39.58
2022-08-14T19:01:38.110Z,39.38
2022-08-14T19:07:19.039Z,39.81
2022-08-14T19:13:04.944Z,40.29
2022-08-14T19:18:38.279Z,40.86
2022-08-14T19:24:29.572Z,40.73
2022-08-14T19:30:26.798Z,40.45
2022-08-14T19:36:29.201Z,40.59
2022-08-14T19:42:02.445Z,41.21
2022-08-14T19:47:41.547Z,41.06
2022-08-14T19:53:17.558Z,41.61
2022-08-14T19:58:55.392Z,41.60
2022-08-14T20:04:46.974Z,41.21
2022-08-14T20:11:06.266Z,41.64
2022-08-14T20:16:21.026Z,41.50
2022-08-14T20:22:37.018Z,41.91
2022-08-14T20:27:59.528Z,42.12
2022-08-14T20:33:30.673Z,42.59
2022-08-14T20:39:16.985Z,42.15
2022-08-14T20:45:04.012Z,42.15
2022-08-14T20:50:34.837Z,43.03
2022-08-14T20:56:29.804Z,43.17
2022-08-14T21:02:29.757Z,42.72
2022-08-14T21:08:10.007Z,43.30
2022-08-14T21:14:24.673Z,43.21
2022-08-14T21:19:39.375Z,43.24
2022-08-14T21:25:12.888Z,43.46
2022-08-14T21:30:51.785Z,43.08
2022-08-14T21:36:24.476Z,43.34
2022-08-14T21:42:00.057Z,43.08
2022-08-14T21:47:29.360Z,43.11
2022-08-14T21:53:03.544Z,43.00
2022-08-14T21:58:52.125Z,42.16
2022-08-14T22:04:32.804Z,42.32
2022-08-14T22:10:07.399Z,42.52
2022-08-14T22:15:37.050Z,42.40
2022-08-14T22:21:08.074Z,42.63
2022-08-14T22:26:47.155Z,42.66
2022-08-14T22:32:18.017Z,42.59
2022-08-14T22:37:47.351Z,43.03
2022-08-14T22:43:38.921Z,42.62
2022-08-14T22:49:16.232Z,43.09
2022-08-14T22:54:58.790Z,42.41
2022-08-14T23:00:31.467Z,43.03
2022-08-14T23:06:02.209Z,42.52
2022-08-14T23:11:31.314Z,41.88
2022-08-14T23:17:04.072Z,43.09
2022-08-14T23:22:33.738Z,42.31
2022-08-14T23:28:04.873Z,42.25
2022-08-14T23:33:35.916Z,42.61
2022-08-14T23:39:19.006Z,42.35
2022-08-14T23:44:48.961Z,43.03
2022-08-14T23:50:34.108Z,43.40
2022-08-14T23:56:07.555Z,42.93
